createdAt,value
2019-04-14T00:00:01.161Z,43.33
2019-04-14T00:02:40.325Z,40.28
2019-04-14T00:05:15.303Z,41.60
2019-04-14T00:10:20.372Z,37.83
2019-04-14T00:12:53.425Z,44.38
2019-04-14T00:17:59.002Z,36.93
2019-04-14T00:20:31.760Z,36.17
2019-04-14T00:23:04.372Z,39.15
2019-04-14T00:25:37.024Z,37.08
2019-04-14T00:28:09.491Z,37.63
2019-04-14T00:30:42.558Z,41.00
2019-04-14T00:33:19.245Z,41.13
2019-04-14T00:36:08.750Z,37.50
2019-04-14T00:38:43.216Z,40.98
2019-04-14T00:41:34.359Z,41.37
2019-04-14T00:43:57.740Z,40.63
2019-04-14T00:46:43.109Z,42.58
2019-04-14T00:49:15.748Z,44.40
2019-04-14T00:51:48.437Z,42.65
2019-04-14T00:54:20.192Z,40.25
2019-04-14T00:56:52.029Z,42.78
2019-04-14T00:59:24.535Z,49.38
2019-04-14T01:01:56.939Z,47.13
2019-04-14T01:04:29.472Z,49.67
2019-04-14T01:07:02.278Z,45.78
2019-04-14T01:09:34.793Z,47.73
2019-04-14T01:12:08.721Z,45.80
2019-04-14T01:14:40.931Z,42.93
2019-04-14T01:17:15.973Z,44.00
2019-04-14T01:19:48.432Z,44.10
2019-04-14T01:22:20.632Z,40.25
2019-04-14T01:24:53.297Z,39.53
2019-04-14T01:27:25.619Z,38.73
2019-04-14T01:29:58.140Z,39.63
2019-04-14T01:32:30.491Z,37.40
2019-04-14T01:35:03.084Z,40.03
2019-04-14T01:37:35.443Z,35.98
2019-04-14T01:40:09.952Z,34.60
2019-04-14T01:42:42.085Z,33.65
2019-04-14T01:45:16.466Z,37.42
2019-04-14T01:47:48.989Z,36.08
2019-04-14T01:50:23.450Z,35.75
2019-04-14T01:53:03.226Z,36.95
2019-04-14T01:55:43.886Z,35.85
2019-04-14T01:58:20.772Z,33.25
2019-04-14T02:00:55.333Z,37.50
2019-04-14T02:03:28.112Z,36.00
2019-04-14T02:06:00.381Z,34.43
2019-04-14T02:08:32.904Z,36.48
2019-04-14T02:11:05.217Z,39.58
2019-04-14T02:13:37.689Z,38.15
2019-04-14T02:16:18.776Z,37.67
2019-04-14T02:18:44.931Z,39.65
2019-04-14T02:21:17.228Z,39.67
2019-04-14T02:23:49.827Z,43.38
2019-04-14T02:26:22.049Z,39.98
2019-04-14T02:28:54.897Z,42.30
2019-04-14T02:31:53.502Z,40.45
2019-04-14T02:34:34.619Z,40.15
2019-04-14T02:42:17.560Z,42.40
2019-04-14T02:47:48.774Z,42.87
2019-04-14T02:52:20.588Z,43.52
2019-04-14T02:54:59.680Z,43.17
2019-04-14T02:57:41.663Z,50.67
2019-04-14T02:59:58.475Z,48.13
2019-04-14T03:05:01.866Z,49.20
2019-04-14T03:12:54.852Z,49.45
2019-04-14T03:15:35.326Z,49.98
2019-04-14T03:18:24.525Z,54.18
2019-04-14T03:21:09.253Z,50.33
2019-04-14T03:23:53.438Z,54.10
2019-04-14T03:26:26.171Z,54.05
2019-04-14T03:29:05.424Z,49.27
2019-04-14T03:32:07.451Z,50.90
2019-04-14T03:39:23.345Z,57.10
2019-04-14T03:41:56.588Z,56.23
2019-04-14T03:44:34.653Z,51.60
2019-04-14T03:49:42.892Z,54.38
2019-04-14T03:52:04.002Z,60.17
2019-04-14T03:54:36.637Z,55.23
2019-04-14T03:56:53.787Z,61.13
2019-04-14T03:59:26.144Z,59.93
2019-04-14T04:01:58.691Z,65.30
2019-04-14T04:04:31.576Z,57.58
2019-04-14T04:07:03.866Z,58.85
2019-04-14T04:09:43.424Z,63.02
2019-04-14T04:12:16.098Z,57.93
2019-04-14T04:14:48.511Z,62.88
2019-04-14T04:17:23.315Z,65.37
2019-04-14T04:20:04.556Z,60.48
2019-04-14T04:22:52.294Z,64.62
2019-04-14T04:25:26.642Z,66.42
2019-04-14T04:27:59.940Z,64.15
2019-04-14T04:30:36.383Z,65.08
2019-04-14T04:33:13.299Z,67.42
2019-04-14T04:35:58.703Z,66.60
2019-04-14T04:38:42.041Z,65.90
2019-04-14T04:41:16.837Z,67.20
2019-04-14T04:43:51.814Z,62.08
2019-04-14T04:46:26.584Z,62.03
2019-04-14T04:49:09.604Z,61.90
2019-04-14T04:51:35.706Z,68.12
2019-04-14T04:54:08.408Z,58.60
2019-04-14T04:56:40.512Z,64.17
2019-04-14T04:59:14.666Z,65.40
2019-04-14T05:01:47.319Z,60.80
2019-04-14T05:04:22.017Z,59.63
2019-04-14T05:07:01.538Z,59.48
2019-04-14T05:09:38.857Z,64.32
2019-04-14T05:12:15.816Z,62.05
2019-04-14T05:15:01.390Z,62.75
2019-04-14T05:17:41.013Z,60.92
2019-04-14T05:20:13.707Z,60.90
2019-04-14T05:22:46.173Z,58.08
2019-04-14T05:25:18.879Z,55.33
2019-04-14T05:27:51.634Z,63.83
2019-04-14T05:30:24.285Z,55.63
2019-04-14T05:32:56.549Z,60.83
2019-04-14T05:35:29.100Z,57.33
2019-04-14T05:38:02.596Z,54.30
2019-04-14T05:40:34.363Z,61.23
2019-04-14T05:43:28.382Z,56.73
2019-04-14T05:45:50.363Z,56.60
2019-04-14T05:48:22.887Z,50.90
2019-04-14T05:50:55.603Z,59.90
2019-04-14T05:53:28.275Z,56.55
2019-04-14T05:56:01.462Z,57.03
2019-04-14T05:58:34.526Z,58.75
2019-04-14T06:01:06.921Z,58.15
2019-04-14T06:03:38.814Z,63.08
2019-04-14T06:06:10.340Z,59.27
2019-04-14T06:08:43.157Z,61.90
2019-04-14T06:11:15.863Z,60.00
2019-04-14T06:13:49.065Z,64.32
2019-04-14T06:16:21.628Z,58.42
2019-04-14T06:18:53.254Z,59.77
2019-04-14T06:21:25.461Z,61.08
2019-04-14T06:23:58.826Z,55.08
2019-04-14T06:26:30.384Z,61.28
2019-04-14T06:29:01.932Z,55.95
2019-04-14T06:31:53.911Z,62.53
2019-04-14T06:34:34.551Z,63.52
2019-04-14T06:37:08.138Z,65.50
2019-04-14T06:39:44.461Z,65.90
2019-04-14T06:42:16.641Z,61.42
2019-04-14T06:44:49.394Z,54.73
2019-04-14T06:47:21.214Z,58.00
2019-04-14T06:49:53.142Z,58.95
2019-04-14T06:52:25.142Z,60.70
2019-04-14T06:54:56.844Z,54.03
2019-04-14T06:57:29.652Z,58.10
2019-04-14T07:00:02.343Z,57.88
2019-04-14T07:02:35.755Z,60.38
2019-04-14T07:05:08.923Z,56.65
2019-04-14T07:07:40.413Z,59.70
2019-04-14T07:10:12.479Z,53.65
2019-04-14T07:12:45.192Z,52.27
2019-04-14T07:15:17.065Z,49.15
2019-04-14T07:17:48.724Z,54.45
2019-04-14T07:20:20.682Z,55.17
2019-04-14T07:22:52.907Z,52.95
2019-04-14T07:25:26.510Z,56.42
2019-04-14T07:27:58.892Z,57.08
2019-04-14T07:30:43.346Z,53.78
2019-04-14T07:33:33.748Z,66.72
2019-04-14T07:36:13.013Z,58.85
2019-04-14T07:38:49.039Z,66.50
2019-04-14T07:41:34.892Z,57.85
2019-04-14T07:44:21.362Z,57.58
2019-04-14T07:47:08.263Z,57.10
2019-04-14T07:49:44.396Z,62.70
2019-04-14T07:52:29.992Z,54.42
2019-04-14T07:55:12.346Z,53.92
2019-04-14T07:58:04.101Z,50.70
2019-04-14T08:00:43.101Z,51.70
2019-04-14T08:03:22.846Z,54.80
2019-04-14T08:05:54.549Z,51.65
2019-04-14T08:08:26.526Z,49.20
2019-04-14T08:10:58.305Z,50.90
2019-04-14T08:13:30.040Z,54.13
2019-04-14T08:16:01.747Z,47.10
2019-04-14T08:18:33.285Z,50.33
2019-04-14T08:21:05.131Z,51.10
2019-04-14T08:23:36.734Z,48.65
2019-04-14T08:26:08.269Z,58.10
2019-04-14T08:28:41.209Z,50.60
2019-04-14T08:31:12.605Z,54.58
2019-04-14T08:33:44.259Z,50.43
2019-04-14T08:36:15.896Z,53.98
2019-04-14T08:38:48.984Z,52.98
2019-04-14T08:41:20.325Z,47.62
2019-04-14T08:43:56.280Z,50.98
2019-04-14T08:46:29.402Z,45.30
2019-04-14T08:49:02.583Z,51.53
2019-04-14T08:51:35.991Z,49.08
2019-04-14T08:54:09.248Z,47.95
2019-04-14T08:56:48.620Z,50.43
2019-04-14T08:59:30.743Z,48.70
2019-04-14T09:02:19.988Z,51.35
2019-04-14T09:04:55.685Z,45.12
2019-04-14T09:07:28.845Z,48.38
2019-04-14T09:10:17.095Z,47.25
2019-04-14T09:12:50.203Z,46.92
2019-04-14T09:15:22.280Z,35.58
2019-04-14T09:17:54.262Z,52.27
2019-04-14T09:20:25.939Z,46.40
2019-04-14T09:22:58.125Z,45.50
2019-04-14T09:25:30.228Z,49.18
2019-04-14T09:28:03.143Z,50.75
2019-04-14T09:30:36.161Z,51.53
2019-04-14T09:33:08.160Z,55.28
2019-04-14T09:35:47.804Z,58.60
2019-04-14T09:38:19.523Z,53.70
2019-04-14T09:40:51.601Z,62.45
2019-04-14T09:43:30.106Z,59.98
2019-04-14T09:46:02.566Z,50.78
2019-04-14T09:48:34.793Z,45.97
2019-04-14T09:51:06.472Z,45.98
2019-04-14T09:53:39.269Z,49.38
2019-04-14T09:56:10.926Z,46.48
2019-04-14T09:58:43.049Z,51.45
2019-04-14T10:01:14.964Z,52.43
2019-04-14T10:03:46.773Z,53.15
2019-04-14T10:06:18.478Z,50.03
2019-04-14T10:08:50.295Z,51.68
2019-04-14T10:11:22.001Z,49.67
2019-04-14T10:13:55.526Z,48.80
2019-04-14T10:16:33.727Z,56.25
2019-04-14T10:19:12.642Z,51.95
2019-04-14T10:21:46.038Z,48.02
2019-04-14T10:24:17.891Z,52.93
2019-04-14T10:26:54.992Z,51.80
2019-04-14T10:29:27.946Z,54.80
2019-04-14T10:32:01.153Z,53.83
2019-04-14T10:34:32.846Z,52.83
2019-04-14T10:37:05.828Z,52.33
2019-04-14T10:39:38.270Z,51.25
2019-04-14T10:42:10.551Z,51.25
2019-04-14T10:44:42.107Z,62.25
2019-04-14T10:47:13.783Z,59.33
2019-04-14T10:49:45.519Z,51.92
2019-04-14T10:52:18.898Z,54.48
2019-04-14T10:54:50.602Z,48.63
2019-04-14T10:57:25.200Z,48.92
2019-04-14T10:59:57.097Z,52.38
2019-04-14T11:02:28.988Z,43.85
2019-04-14T11:05:00.914Z,45.08
2019-04-14T11:07:32.545Z,46.60
2019-04-14T11:10:08.507Z,47.65
2019-04-14T11:12:41.175Z,50.25
2019-04-14T11:15:15.561Z,43.60
2019-04-14T11:17:47.306Z,48.25
2019-04-14T11:20:20.259Z,42.30
2019-04-14T11:23:02.767Z,43.83
2019-04-14T11:25:25.199Z,45.43
2019-04-14T11:27:57.853Z,44.30
2019-04-14T11:30:30.582Z,45.75
2019-04-14T11:33:09.919Z,45.58
2019-04-14T11:35:49.034Z,45.38
2019-04-14T11:38:25.740Z,44.67
2019-04-14T11:40:58.796Z,37.63
2019-04-14T11:43:30.464Z,40.67
2019-04-14T11:46:03.718Z,36.20
2019-04-14T11:48:36.737Z,43.90
2019-04-14T11:51:08.487Z,41.88
2019-04-14T11:53:40.579Z,41.53
2019-04-14T11:56:14.575Z,37.65
2019-04-14T11:58:46.121Z,33.73
2019-04-14T12:01:19.283Z,39.88
2019-04-14T12:04:04.855Z,37.37
2019-04-14T12:06:43.992Z,38.65
2019-04-14T12:09:32.654Z,38.08
2019-04-14T12:12:05.374Z,40.05
2019-04-14T12:14:37.228Z,37.90
2019-04-14T12:17:08.772Z,37.17
2019-04-14T12:19:41.089Z,36.68
2019-04-14T12:22:13.885Z,39.55
2019-04-14T12:24:45.395Z,36.23
2019-04-14T12:27:17.132Z,36.73
2019-04-14T12:29:50.094Z,37.83
2019-04-14T12:32:22.318Z,36.98
2019-04-14T12:34:53.970Z,37.25
2019-04-14T12:37:25.668Z,38.38
2019-04-14T12:39:58.302Z,38.42
2019-04-14T12:42:38.433Z,37.25
2019-04-14T12:45:32.458Z,40.83
2019-04-14T12:48:14.369Z,43.87
2019-04-14T12:50:53.357Z,38.25
2019-04-14T12:53:25.186Z,38.13
2019-04-14T12:55:56.883Z,37.60
2019-04-14T12:58:46.904Z,37.63
2019-04-14T13:01:21.048Z,39.75
2019-04-14T13:03:57.188Z,41.23
2019-04-14T13:06:28.868Z,43.73
2019-04-14T13:09:01.102Z,41.35
2019-04-14T13:11:33.961Z,42.93
2019-04-14T13:14:11.695Z,39.98
2019-04-14T13:16:44.457Z,46.13
2019-04-14T13:19:16.373Z,43.55
2019-04-14T13:21:48.271Z,46.88
2019-04-14T13:24:20.233Z,45.15
2019-04-14T13:26:52.475Z,43.45
2019-04-14T13:29:25.083Z,39.18
2019-04-14T13:31:57.328Z,39.33
2019-04-14T13:34:29.892Z,45.03
2019-04-14T13:37:01.676Z,44.53
2019-04-14T13:39:33.392Z,39.70
2019-04-14T13:44:43.010Z,39.80
2019-04-14T13:47:14.993Z,44.70
2019-04-14T13:49:47.960Z,37.45
2019-04-14T13:52:19.604Z,41.35
2019-04-14T13:54:52.471Z,40.08
2019-04-14T13:59:57.306Z,43.17
2019-04-14T14:02:30.724Z,39.23
2019-04-14T14:05:02.437Z,40.23
2019-04-14T14:07:34.015Z,38.55
2019-04-14T14:10:08.842Z,40.63
2019-04-14T14:12:47.739Z,42.15
2019-04-14T14:15:33.306Z,45.12
2019-04-14T14:18:22.947Z,42.10
2019-04-14T14:21:14.842Z,40.12
2019-04-14T14:23:48.175Z,39.33
2019-04-14T14:26:32.060Z,42.35
2019-04-14T14:29:03.977Z,43.78
2019-04-14T14:31:36.392Z,47.58
2019-04-14T14:34:11.289Z,44.67
2019-04-14T14:36:43.102Z,43.73
2019-04-14T14:39:16.233Z,45.25
2019-04-14T14:41:47.867Z,40.15
2019-04-14T14:44:22.676Z,45.98
2019-04-14T14:46:56.880Z,42.65
2019-04-14T14:49:45.563Z,43.75
2019-04-14T14:52:18.802Z,45.38
2019-04-14T14:54:53.189Z,42.08
2019-04-14T14:57:25.119Z,42.13
2019-04-14T14:59:57.243Z,44.75
2019-04-14T15:02:31.010Z,49.65
2019-04-14T15:05:04.887Z,45.58
2019-04-14T15:07:38.924Z,48.33
2019-04-14T15:10:13.517Z,47.03
2019-04-14T15:12:48.201Z,44.73
2019-04-14T15:15:20.337Z,46.98
2019-04-14T15:17:58.375Z,48.02
2019-04-14T15:23:03.640Z,39.67
2019-04-14T15:25:36.730Z,40.75
2019-04-14T15:28:09.413Z,44.73
2019-04-14T15:30:41.558Z,40.92
2019-04-14T15:33:13.425Z,46.40
2019-04-14T15:35:46.245Z,42.05
2019-04-14T15:38:17.941Z,40.35
2019-04-14T15:40:51.664Z,41.60
2019-04-14T15:43:24.043Z,39.53
2019-04-14T15:45:57.007Z,42.48
2019-04-14T15:48:28.778Z,44.73
2019-04-14T15:51:00.684Z,43.40
2019-04-14T15:53:38.237Z,41.73
2019-04-14T15:56:10.152Z,41.80
2019-04-14T15:58:50.047Z,42.33
2019-04-14T16:01:33.475Z,38.95
2019-04-14T16:04:10.670Z,43.30
2019-04-14T16:06:44.107Z,43.33
2019-04-14T16:09:25.008Z,40.28
2019-04-14T16:12:01.209Z,42.03
2019-04-14T16:14:50.974Z,41.75
2019-04-14T16:17:30.998Z,40.98
2019-04-14T16:20:07.787Z,41.42
2019-04-14T16:22:39.352Z,45.48
2019-04-14T16:25:11.204Z,42.45
2019-04-14T16:28:02.132Z,41.60
2019-04-14T16:30:55.476Z,45.30
2019-04-14T16:33:29.164Z,44.80
2019-04-14T16:36:01.076Z,41.90
2019-04-14T16:38:33.661Z,42.15
2019-04-14T16:41:12.862Z,39.95
2019-04-14T16:43:45.030Z,39.45
2019-04-14T16:46:18.575Z,39.10
2019-04-14T16:48:51.844Z,42.50
2019-04-14T16:51:28.519Z,40.88
2019-04-14T16:54:03.518Z,40.78
2019-04-14T16:56:53.453Z,38.42
2019-04-14T16:59:27.031Z,38.30
2019-04-14T17:02:10.357Z,43.02
2019-04-14T17:04:33.247Z,43.23
2019-04-14T17:07:12.815Z,38.63
2019-04-14T17:09:45.768Z,39.33
2019-04-14T17:12:19.346Z,37.10
2019-04-14T17:14:58.938Z,38.92
2019-04-14T17:17:44.791Z,42.88
2019-04-14T17:20:22.906Z,39.33
2019-04-14T17:23:05.425Z,37.38
2019-04-14T17:25:41.669Z,38.15
2019-04-14T17:28:15.388Z,38.50
2019-04-14T17:30:48.820Z,42.93
2019-04-14T17:33:22.497Z,35.85
2019-04-14T17:36:12.474Z,39.83
2019-04-14T17:39:07.190Z,43.78
2019-04-14T17:42:01.375Z,41.00
2019-04-14T17:44:34.951Z,44.93
2019-04-14T17:47:14.926Z,43.68
2019-04-14T17:50:05.072Z,40.33
2019-04-14T17:52:39.618Z,47.30
2019-04-14T17:55:17.768Z,45.12
2019-04-14T17:57:54.065Z,36.55
2019-04-14T18:00:32.086Z,40.40
2019-04-14T18:03:13.144Z,40.17
2019-04-14T18:05:56.838Z,43.68
2019-04-14T18:08:36.143Z,39.95
2019-04-14T18:11:30.081Z,41.50
2019-04-14T18:14:11.552Z,39.65
2019-04-14T18:19:35.313Z,41.30
2019-04-14T18:22:07.595Z,41.83
2019-04-14T18:24:42.593Z,38.63
2019-04-14T18:27:16.686Z,43.00
2019-04-14T18:29:53.193Z,41.50
2019-04-14T18:32:36.169Z,41.08
2019-04-14T18:35:15.479Z,41.05
2019-04-14T18:37:49.436Z,46.00
2019-04-14T18:40:28.653Z,49.40
2019-04-14T18:43:15.969Z,45.50
2019-04-14T18:45:58.344Z,42.90
2019-04-14T18:48:35.229Z,43.70
2019-04-14T18:51:08.912Z,47.15
2019-04-14T18:53:49.728Z,41.25
2019-04-14T18:56:25.742Z,43.68
2019-04-14T18:59:15.567Z,41.95
2019-04-14T19:01:53.607Z,40.75
2019-04-14T19:04:27.985Z,40.85
2019-04-14T19:07:02.345Z,49.90
2019-04-14T19:09:34.884Z,47.10
2019-04-14T19:12:20.595Z,45.03
2019-04-14T19:15:02.197Z,46.40
2019-04-14T19:17:38.663Z,46.40
2019-04-14T19:20:11.570Z,50.17
2019-04-14T19:22:42.999Z,44.63
2019-04-14T19:25:16.956Z,47.05
2019-04-14T19:27:48.781Z,48.92
2019-04-14T19:30:20.766Z,49.27
2019-04-14T19:32:57.646Z,46.08
2019-04-14T19:35:33.827Z,52.27
2019-04-14T19:38:09.863Z,53.38
2019-04-14T19:40:42.933Z,50.52
2019-04-14T19:43:23.570Z,54.23
2019-04-14T19:45:52.217Z,48.52
2019-04-14T19:48:23.822Z,52.83
2019-04-14T19:50:57.010Z,57.27
2019-04-14T19:53:28.809Z,57.83
2019-04-14T19:56:00.670Z,46.58
2019-04-14T19:58:32.547Z,48.28
2019-04-14T20:01:07.992Z,42.27
2019-04-14T20:03:44.021Z,52.62
2019-04-14T20:06:17.401Z,45.10
2019-04-14T20:08:51.212Z,54.05
2019-04-14T20:11:27.445Z,50.05
2019-04-14T20:14:01.178Z,51.42
2019-04-14T20:16:41.255Z,44.67
2019-04-14T20:19:24.665Z,49.98
2019-04-14T20:22:04.130Z,53.20
2019-04-14T20:24:51.360Z,54.95
2019-04-14T20:27:37.121Z,55.92
2019-04-14T20:30:14.387Z,60.85
2019-04-14T20:32:46.379Z,61.42
2019-04-14T20:35:18.378Z,53.65
2019-04-14T20:37:50.484Z,55.85
2019-04-14T20:40:26.275Z,52.23
2019-04-14T20:43:03.330Z,53.98
2019-04-14T20:45:44.184Z,61.05
2019-04-14T20:48:23.199Z,58.00
2019-04-14T20:50:56.589Z,51.60
2019-04-14T20:53:32.577Z,54.38
2019-04-14T20:56:04.533Z,50.65
2019-04-14T20:58:36.401Z,52.40
2019-04-14T21:01:09.791Z,54.08
2019-04-14T21:03:49.107Z,55.12
2019-04-14T21:06:22.567Z,59.08
2019-04-14T21:09:11.282Z,54.03
2019-04-14T21:12:01.602Z,51.60
2019-04-14T21:14:40.848Z,60.05
2019-04-14T21:17:31.654Z,67.92
2019-04-14T21:20:21.059Z,53.73
2019-04-14T21:23:00.012Z,57.78
2019-04-14T21:25:37.191Z,52.43
2019-04-14T21:28:15.708Z,53.98
2019-04-14T21:30:58.284Z,56.10
2019-04-14T21:33:43.873Z,51.15
2019-04-14T21:36:35.496Z,54.23
2019-04-14T21:39:12.208Z,48.13
2019-04-14T21:41:46.794Z,42.00
2019-04-14T21:44:18.683Z,43.80
2019-04-14T21:46:50.435Z,41.18
2019-04-14T21:49:22.103Z,40.78
2019-04-14T21:52:08.236Z,41.02
2019-04-14T21:54:41.489Z,47.98
2019-04-14T21:57:33.998Z,43.48
2019-04-14T22:00:27.090Z,36.63
2019-04-14T22:05:49.008Z,32.57
2019-04-14T22:08:34.381Z,36.55
2019-04-14T22:11:21.124Z,38.05
2019-04-14T22:13:53.016Z,35.08
2019-04-14T22:16:27.311Z,43.08
2019-04-14T22:18:59.472Z,37.25
2019-04-14T22:21:31.296Z,37.03
2019-04-14T22:24:03.090Z,35.95
2019-04-14T22:26:34.902Z,35.43
2019-04-14T22:29:06.803Z,43.33
2019-04-14T22:31:38.621Z,37.28
2019-04-14T22:34:10.546Z,35.05
2019-04-14T22:36:43.011Z,29.27
2019-04-14T22:39:16.412Z,36.33
2019-04-14T22:41:48.182Z,33.28
2019-04-14T22:44:20.444Z,37.55
2019-04-14T22:46:53.140Z,34.83
2019-04-14T22:49:25.304Z,35.13
2019-04-14T22:51:57.856Z,31.15
2019-04-14T22:54:29.643Z,30.12
2019-04-14T22:57:02.089Z,31.23
2019-04-14T22:59:33.674Z,29.80
2019-04-14T23:02:16.260Z,36.95
2019-04-14T23:05:07.799Z,28.85
2019-04-14T23:07:44.207Z,31.75
2019-04-14T23:10:20.837Z,32.40
2019-04-14T23:13:06.673Z,28.10
2019-04-14T23:15:58.002Z,31.57
2019-04-14T23:18:46.189Z,35.65
2019-04-14T23:21:23.685Z,33.10
2019-04-14T23:24:05.694Z,35.20
2019-04-14T23:26:37.312Z,32.85
2019-04-14T23:29:08.935Z,34.48
2019-04-14T23:31:40.699Z,30.00
2019-04-14T23:34:12.343Z,32.20
2019-04-14T23:36:43.909Z,32.00
2019-04-14T23:39:15.379Z,29.55
2019-04-14T23:41:47.217Z,23.57
2019-04-14T23:44:19.821Z,26.40
2019-04-14T23:46:54.448Z,27.87
2019-04-14T23:49:26.274Z,24.65
2019-04-14T23:51:57.913Z,26.87
2019-04-14T23:54:29.557Z,28.83
2019-04-14T23:57:06.023Z,25.65
2019-04-14T23:59:34.640Z,23.98
